createdAt,value
2023-05-25T00:01:30.600Z,16.84
2023-05-25T00:04:19.707Z,16.79
2023-05-25T00:07:07.500Z,16.60
2023-05-25T00:09:55.344Z,16.62
2023-05-25T00:12:43.092Z,16.67
2023-05-25T00:15:30.721Z,16.62
2023-05-25T00:18:19.006Z,16.66
2023-05-25T00:21:07.462Z,16.41
2023-05-25T00:23:55.277Z,16.37
2023-05-25T00:26:43.038Z,16.42
2023-05-25T00:29:31.342Z,16.54
2023-05-25T00:32:19.305Z,16.45
2023-05-25T00:35:08.215Z,16.49
2023-05-25T00:37:58.831Z,16.11
2023-05-25T00:40:48.170Z,16.12
2023-05-25T00:43:36.244Z,16.33
2023-05-25T00:46:24.162Z,16.25
2023-05-25T00:49:15.456Z,16.25
2023-05-25T00:52:03.359Z,16.17
2023-05-25T00:54:55.951Z,15.88
2023-05-25T00:57:48.379Z,15.54
2023-05-25T01:00:37.935Z,15.87
2023-05-25T01:03:30.014Z,15.96
2023-05-25T01:06:19.055Z,15.95
2023-05-25T01:09:11.638Z,15.89
2023-05-25T01:12:01.576Z,16.07
2023-05-25T01:14:50.113Z,16.12
2023-05-25T01:17:38.658Z,15.90
2023-05-25T01:20:30.933Z,16.04
2023-05-25T01:23:20.823Z,15.99
2023-05-25T01:26:14.127Z,16.06
2023-05-25T01:29:03.365Z,16.00
2023-05-25T01:31:54.646Z,15.87
2023-05-25T01:34:44.023Z,16.15
2023-05-25T01:37:32.542Z,16.16
2023-05-25T01:40:20.320Z,16.18
2023-05-25T01:43:07.999Z,16.14
2023-05-25T01:46:03.223Z,15.99
2023-05-25T01:49:13.000Z,16.26
2023-05-25T01:52:07.106Z,16.11
2023-05-25T01:55:08.951Z,15.71
2023-05-25T01:58:00.302Z,15.79
2023-05-25T02:00:51.344Z,15.88
2023-05-25T02:03:41.415Z,15.63
2023-05-25T02:06:30.185Z,15.51
2023-05-25T02:09:21.483Z,15.49
2023-05-25T02:12:09.477Z,15.40
2023-05-25T02:14:57.175Z,15.25
2023-05-25T02:17:44.944Z,15.42
2023-05-25T02:20:33.136Z,15.40
2023-05-25T02:23:21.113Z,15.46
2023-05-25T02:26:08.883Z,15.39
2023-05-25T02:28:56.614Z,15.17
2023-05-25T02:31:44.647Z,15.36
2023-05-25T02:34:32.678Z,15.44
2023-05-25T02:37:20.426Z,15.49
2023-05-25T02:40:10.998Z,15.34
2023-05-25T02:42:58.937Z,15.42
2023-05-25T02:45:46.793Z,15.58
2023-05-25T02:48:34.762Z,15.59
2023-05-25T02:51:22.647Z,15.47
2023-05-25T02:54:10.798Z,15.28
2023-05-25T02:57:03.351Z,15.29
2023-05-25T02:59:52.874Z,15.38
2023-05-25T03:02:40.711Z,15.43
2023-05-25T03:05:28.663Z,15.42
2023-05-25T03:08:16.627Z,15.47
2023-05-25T03:11:04.797Z,15.65
2023-05-25T03:13:53.634Z,15.56
2023-05-25T03:16:43.239Z,15.65
2023-05-25T03:19:32.573Z,15.52
2023-05-25T03:22:20.727Z,15.76
2023-05-25T03:25:08.757Z,15.63
2023-05-25T03:27:56.817Z,15.89
2023-05-25T03:30:44.908Z,15.85
2023-05-25T03:33:33.633Z,15.87
2023-05-25T03:36:22.523Z,16.01
2023-05-25T03:39:10.407Z,16.07
2023-05-25T03:41:58.815Z,15.92
2023-05-25T03:44:49.202Z,16.08
2023-05-25T03:47:37.403Z,16.16
2023-05-25T03:50:25.244Z,16.02
2023-05-25T03:53:13.110Z,16.19
2023-05-25T03:56:00.949Z,16.21
2023-05-25T03:58:48.645Z,16.42
2023-05-25T04:01:38.300Z,16.47
2023-05-25T04:04:26.144Z,16.49
2023-05-25T04:07:13.969Z,16.42
2023-05-25T04:10:01.782Z,16.54
2023-05-25T04:12:49.476Z,16.65
2023-05-25T04:15:37.275Z,16.59
2023-05-25T04:18:30.781Z,16.92
2023-05-25T04:21:20.199Z,16.97
2023-05-25T04:24:09.733Z,16.92
2023-05-25T04:27:04.341Z,17.01
2023-05-25T04:29:54.580Z,17.12
2023-05-25T04:33:04.366Z,17.17
2023-05-25T04:35:58.898Z,17.22
2023-05-25T04:38:48.193Z,17.19
2023-05-25T04:41:37.985Z,17.24
2023-05-25T04:44:30.106Z,17.36
2023-05-25T04:47:19.509Z,17.51
2023-05-25T04:50:09.711Z,17.60
2023-05-25T04:52:57.402Z,17.62
2023-05-25T04:55:45.479Z,17.65
2023-05-25T04:58:33.768Z,17.79
2023-05-25T05:01:21.577Z,17.77
2023-05-25T05:04:09.712Z,17.97
2023-05-25T05:06:59.058Z,17.84
2023-05-25T05:09:49.644Z,17.71
2023-05-25T05:12:41.720Z,18.12
2023-05-25T05:15:31.073Z,18.09
2023-05-25T05:18:21.034Z,18.47
2023-05-25T05:21:08.931Z,18.52
2023-05-25T05:24:03.293Z,18.35
2023-05-25T05:26:58.060Z,18.37
2023-05-25T05:29:59.048Z,18.55
2023-05-25T05:32:47.097Z,18.68
2023-05-25T05:35:36.360Z,18.72
2023-05-25T05:38:32.536Z,18.85
2023-05-25T05:41:29.946Z,18.73
2023-05-25T05:44:26.207Z,18.92
2023-05-25T05:47:17.843Z,18.78
2023-05-25T05:50:08.774Z,18.62
2023-05-25T05:52:58.251Z,18.85
2023-05-25T05:55:48.456Z,19.37
2023-05-25T05:58:38.976Z,19.42
2023-05-25T06:01:26.800Z,19.40
2023-05-25T06:04:16.479Z,19.51
2023-05-25T06:07:10.741Z,19.82
2023-05-25T06:09:58.935Z,19.58
2023-05-25T06:12:50.373Z,19.95
2023-05-25T06:15:41.355Z,19.67
2023-05-25T06:18:38.938Z,19.80
2023-05-25T06:21:27.883Z,19.97
2023-05-25T06:24:16.249Z,20.20
2023-05-25T06:27:05.366Z,20.18
2023-05-25T06:29:55.478Z,20.44
2023-05-25T06:32:45.019Z,20.39
2023-05-25T06:35:35.969Z,20.27
2023-05-25T06:38:29.233Z,20.27
2023-05-25T06:41:17.012Z,20.54
2023-05-25T06:44:04.811Z,20.82
2023-05-25T06:46:56.636Z,20.83
2023-05-25T06:49:48.535Z,21.01
2023-05-25T06:52:36.672Z,21.14
2023-05-25T06:55:24.494Z,21.30
2023-05-25T06:58:14.683Z,21.15
2023-05-25T07:01:02.856Z,21.26
2023-05-25T07:03:50.653Z,20.90
2023-05-25T07:06:38.442Z,21.29
2023-05-25T07:09:26.210Z,21.10
2023-05-25T07:12:14.932Z,21.24
2023-05-25T07:15:05.008Z,21.39
2023-05-25T07:17:52.834Z,21.42
2023-05-25T07:20:44.236Z,21.24
2023-05-25T07:23:35.812Z,21.42
2023-05-25T07:26:23.671Z,21.28
2023-05-25T07:29:12.703Z,21.41
2023-05-25T07:32:01.554Z,21.37
2023-05-25T07:34:49.360Z,21.53
2023-05-25T07:37:37.382Z,21.59
2023-05-25T07:40:25.234Z,21.66
2023-05-25T07:43:18.442Z,21.78
2023-05-25T07:46:07.352Z,22.06
2023-05-25T07:48:56.545Z,22.27
2023-05-25T07:51:49.095Z,22.33
2023-05-25T07:54:40.566Z,22.86
2023-05-25T07:57:32.149Z,23.12
2023-05-25T08:00:23.338Z,23.40
2023-05-25T08:03:14.363Z,23.98
2023-05-25T08:06:02.060Z,23.93
2023-05-25T08:09:04.481Z,24.27
2023-05-25T08:12:21.309Z,24.52
2023-05-25T08:15:08.383Z,24.71
2023-05-25T08:18:02.162Z,25.21
2023-05-25T08:20:50.024Z,25.52
2023-05-25T08:23:42.505Z,25.44
2023-05-25T08:26:52.270Z,25.64
2023-05-25T08:29:40.424Z,24.93
2023-05-25T08:32:29.091Z,25.09
2023-05-25T08:35:20.502Z,25.27
2023-05-25T08:38:08.562Z,25.53
2023-05-25T08:41:14.868Z,25.40
2023-05-25T08:44:09.723Z,25.01
2023-05-25T08:46:58.574Z,25.26
2023-05-25T08:49:46.760Z,24.97
2023-05-25T08:52:36.591Z,25.23
2023-05-25T08:55:28.417Z,25.38
2023-05-25T08:58:22.356Z,25.55
2023-05-25T09:01:12.453Z,25.73
2023-05-25T09:04:01.593Z,25.65
2023-05-25T09:07:05.730Z,25.85
2023-05-25T09:09:58.410Z,26.30
2023-05-25T09:12:46.966Z,26.21
2023-05-25T09:15:35.371Z,26.36
2023-05-25T09:18:47.440Z,26.38
2023-05-25T09:21:37.125Z,26.55
2023-05-25T09:24:25.067Z,26.73
2023-05-25T09:27:53.712Z,26.35
2023-05-25T09:31:08.536Z,26.14
2023-05-25T09:34:00.398Z,26.34
2023-05-25T09:36:48.624Z,26.63
2023-05-25T09:39:40.463Z,26.46
2023-05-25T09:42:50.136Z,26.18
2023-05-25T09:45:38.614Z,26.23
2023-05-25T09:48:26.526Z,26.44
2023-05-25T09:51:14.260Z,26.60
2023-05-25T09:54:02.436Z,27.32
2023-05-25T09:56:50.201Z,26.67
2023-05-25T09:59:39.042Z,27.09
2023-05-25T10:02:26.979Z,27.63
2023-05-25T10:05:14.769Z,27.17
2023-05-25T10:08:06.048Z,27.00
2023-05-25T10:10:55.710Z,27.47
2023-05-25T10:13:47.707Z,27.55
2023-05-25T10:16:47.048Z,27.80
2023-05-25T10:20:05.792Z,27.41
2023-05-25T10:23:14.276Z,26.95
2023-05-25T10:26:06.263Z,27.22
2023-05-25T10:29:01.796Z,27.40
2023-05-25T10:31:50.383Z,27.40
2023-05-25T10:34:38.151Z,27.47
2023-05-25T10:37:31.058Z,27.77
2023-05-25T10:40:22.888Z,28.34
2023-05-25T10:43:10.902Z,28.37
2023-05-25T10:46:01.530Z,28.14
2023-05-25T10:48:52.621Z,28.43
2023-05-25T10:51:44.079Z,28.06
2023-05-25T10:54:34.061Z,27.91
2023-05-25T10:57:24.513Z,27.88
2023-05-25T11:00:14.317Z,28.30
2023-05-25T11:03:02.442Z,28.67
2023-05-25T11:06:11.362Z,28.13
2023-05-25T11:09:01.408Z,27.99
2023-05-25T11:11:50.420Z,27.96
2023-05-25T11:14:42.471Z,28.05
2023-05-25T11:17:32.669Z,28.59
2023-05-25T11:20:27.935Z,29.05
2023-05-25T11:23:25.292Z,28.84
2023-05-25T11:26:24.929Z,28.85
2023-05-25T11:29:15.073Z,28.04
2023-05-25T11:32:03.127Z,28.07
2023-05-25T11:34:53.219Z,28.53
2023-05-25T11:37:41.890Z,28.86
2023-05-25T11:40:31.524Z,28.93
2023-05-25T11:43:19.997Z,28.99
2023-05-25T11:46:44.292Z,29.22
2023-05-25T11:49:32.782Z,29.61
2023-05-25T11:52:23.124Z,30.03
2023-05-25T11:55:14.815Z,30.01
2023-05-25T11:58:02.585Z,29.61
2023-05-25T12:00:53.342Z,29.52
2023-05-25T12:03:41.762Z,28.94
2023-05-25T12:06:30.983Z,28.75
2023-05-25T12:09:22.574Z,28.08
2023-05-25T12:12:10.529Z,27.77
2023-05-25T12:14:59.085Z,27.22
2023-05-25T12:17:47.840Z,27.34
2023-05-25T12:20:38.857Z,26.73
2023-05-25T12:23:27.309Z,26.37
2023-05-25T12:26:18.987Z,25.93
2023-05-25T12:29:12.384Z,25.52
2023-05-25T12:32:05.912Z,25.47
2023-05-25T12:35:02.812Z,25.32
2023-05-25T12:37:50.543Z,25.52
2023-05-25T12:40:40.874Z,25.29
2023-05-25T12:43:38.077Z,25.00
2023-05-25T12:46:27.644Z,25.04
2023-05-25T12:49:33.771Z,25.17
2023-05-25T12:52:34.953Z,25.54
2023-05-25T12:55:28.889Z,25.76
2023-05-25T12:58:34.940Z,26.10
2023-05-25T13:01:22.709Z,26.68
2023-05-25T13:04:10.490Z,27.29
2023-05-25T13:06:58.154Z,27.62
2023-05-25T13:09:45.962Z,27.36
2023-05-25T13:12:35.657Z,27.74
2023-05-25T13:15:23.525Z,28.07
2023-05-25T13:18:11.291Z,28.22
2023-05-25T13:20:59.732Z,28.13
2023-05-25T13:23:48.429Z,28.19
2023-05-25T13:26:36.167Z,28.27
2023-05-25T13:29:25.796Z,28.56
2023-05-25T13:32:14.013Z,28.72
2023-05-25T13:35:02.058Z,28.72
2023-05-25T13:37:57.396Z,28.72
2023-05-25T13:40:45.693Z,28.91
2023-05-25T13:43:33.884Z,29.12
2023-05-25T13:46:33.725Z,29.00
2023-05-25T13:49:23.671Z,28.67
2023-05-25T13:52:12.381Z,28.84
2023-05-25T13:55:02.471Z,29.32
2023-05-25T13:57:50.291Z,29.32
2023-05-25T14:00:38.500Z,28.55
2023-05-25T14:03:28.444Z,28.66
2023-05-25T14:06:16.195Z,28.71
2023-05-25T14:09:04.066Z,28.71
2023-05-25T14:11:53.640Z,28.77
2023-05-25T14:14:41.434Z,29.29
2023-05-25T14:17:48.021Z,29.16
2023-05-25T14:20:38.283Z,29.44
2023-05-25T14:23:26.129Z,29.82
2023-05-25T14:26:13.997Z,30.04
2023-05-25T14:29:02.343Z,30.02
2023-05-25T14:31:51.151Z,29.82
2023-05-25T14:34:39.056Z,29.90
2023-05-25T14:37:26.936Z,29.52
2023-05-25T14:40:14.748Z,29.14
2023-05-25T14:43:02.676Z,28.73
2023-05-25T14:45:50.704Z,28.51
2023-05-25T14:48:38.434Z,28.31
2023-05-25T14:51:26.351Z,28.20
2023-05-25T14:54:14.174Z,27.64
2023-05-25T14:57:02.182Z,27.58
2023-05-25T14:59:49.896Z,27.48
2023-05-25T15:02:37.745Z,27.57
2023-05-25T15:05:25.871Z,28.17
2023-05-25T15:08:14.095Z,28.19
2023-05-25T15:11:01.778Z,28.04
2023-05-25T15:13:49.612Z,28.44
2023-05-25T15:16:37.495Z,27.97
2023-05-25T15:19:25.433Z,27.88
2023-05-25T15:22:13.245Z,27.60
2023-05-25T15:25:02.561Z,27.54
2023-05-25T15:27:50.723Z,27.33
2023-05-25T15:30:39.781Z,26.92
2023-05-25T15:33:39.472Z,27.06
2023-05-25T15:36:32.903Z,27.13
2023-05-25T15:39:20.683Z,27.32
2023-05-25T15:42:08.675Z,27.30
2023-05-25T15:44:56.609Z,26.92
2023-05-25T15:47:47.065Z,26.96
2023-05-25T15:50:34.853Z,26.59
2023-05-25T15:53:22.724Z,26.34
2023-05-25T15:56:10.683Z,26.54
2023-05-25T15:58:58.407Z,26.44
2023-05-25T16:01:46.289Z,26.55
2023-05-25T16:04:34.197Z,26.33
2023-05-25T16:07:22.171Z,26.03
2023-05-25T16:10:10.346Z,26.07
2023-05-25T16:12:59.925Z,25.84
2023-05-25T16:15:47.952Z,25.95
2023-05-25T16:18:39.351Z,26.05
2023-05-25T16:21:27.118Z,26.18
2023-05-25T16:24:15.292Z,26.16
2023-05-25T16:27:03.265Z,25.97
2023-05-25T16:29:51.014Z,26.01
2023-05-25T16:32:39.066Z,25.91
2023-05-25T16:35:32.009Z,25.79
2023-05-25T16:38:25.015Z,25.66
2023-05-25T16:41:12.975Z,24.99
2023-05-25T16:44:01.719Z,23.53
2023-05-25T16:46:49.328Z,22.50
2023-05-25T16:49:39.335Z,21.33
2023-05-25T17:01:15.894Z,18.02
2023-05-25T17:04:06.478Z,17.94
2023-05-25T17:06:57.372Z,17.86
2023-05-25T17:09:45.192Z,17.97
2023-05-25T17:12:33.084Z,17.94
2023-05-25T17:15:22.101Z,17.60
2023-05-25T17:18:13.158Z,17.19
2023-05-25T17:21:02.140Z,17.35
2023-05-25T17:23:50.004Z,16.97
2023-05-25T17:26:37.846Z,16.97
2023-05-25T17:29:26.236Z,16.68
2023-05-25T17:32:14.041Z,16.89
2023-05-25T17:35:01.923Z,16.80
2023-05-25T17:37:49.952Z,16.92
2023-05-25T17:40:40.068Z,16.98
2023-05-25T17:43:27.773Z,16.95
2023-05-25T17:46:18.034Z,16.83
2023-05-25T18:30:34.911Z,16.73
2023-05-25T18:33:41.462Z,16.73
2023-05-25T18:36:29.431Z,16.74
2023-05-25T18:39:17.160Z,16.77
2023-05-25T18:42:05.169Z,16.69
2023-05-25T18:44:52.892Z,16.92
2023-05-25T18:47:41.021Z,16.88
2023-05-25T18:50:28.802Z,16.83
2023-05-25T18:53:16.636Z,16.75
2023-05-25T18:56:04.398Z,16.59
2023-05-25T18:58:54.969Z,16.57
2023-05-25T19:01:42.916Z,16.40
2023-05-25T19:04:31.363Z,16.50
2023-05-25T19:07:19.007Z,16.46
2023-05-25T19:10:07.516Z,16.46
2023-05-25T19:12:55.308Z,16.32
2023-05-25T19:15:46.312Z,16.38
2023-05-25T19:18:34.283Z,16.37
2023-05-25T19:21:23.727Z,16.30
2023-05-25T19:24:11.678Z,16.38
2023-05-25T19:26:59.547Z,16.24
2023-05-25T19:29:49.025Z,15.78
2023-05-25T19:32:37.023Z,16.18
2023-05-25T19:35:24.875Z,16.19
2023-05-25T19:38:13.176Z,16.34
2023-05-25T19:41:01.018Z,16.32
2023-05-25T19:43:48.758Z,16.24
2023-05-25T19:46:39.327Z,16.22
2023-05-25T19:49:27.193Z,16.12
2023-05-25T19:52:18.122Z,16.29
2023-05-25T19:55:09.877Z,16.20
2023-05-25T19:57:57.587Z,16.31
2023-05-25T20:00:46.441Z,16.16
2023-05-25T20:03:34.314Z,16.32
2023-05-25T20:06:22.168Z,16.33
2023-05-25T20:09:12.726Z,16.28
2023-05-25T20:12:01.093Z,16.15
2023-05-25T20:14:48.796Z,16.17
2023-05-25T20:17:36.597Z,16.11
2023-05-25T20:20:24.390Z,16.20
2023-05-25T20:23:12.507Z,16.13
2023-05-25T20:26:00.229Z,16.17
2023-05-25T20:28:48.013Z,16.05
2023-05-25T20:31:35.929Z,16.04
2023-05-25T20:34:23.704Z,16.14
2023-05-25T20:37:11.566Z,16.16
2023-05-25T20:39:59.375Z,16.21
2023-05-25T20:42:47.124Z,16.12
2023-05-25T20:45:34.940Z,16.10
2023-05-25T20:48:22.701Z,16.09
2023-05-25T20:51:11.870Z,15.93
2023-05-25T20:53:59.521Z,16.12
2023-05-25T20:56:48.419Z,16.03
2023-05-25T20:59:36.258Z,16.04
2023-05-25T21:02:24.101Z,15.99
2023-05-25T21:05:11.887Z,16.09
2023-05-25T21:07:59.739Z,15.96
2023-05-25T21:10:47.432Z,16.00
2023-05-25T21:13:35.546Z,16.06
2023-05-25T21:16:23.232Z,16.04
2023-05-25T21:19:11.840Z,16.06
2023-05-25T21:21:59.691Z,16.15
2023-05-25T21:24:48.256Z,16.03
2023-05-25T21:27:35.944Z,15.99
2023-05-25T21:30:24.636Z,16.00
2023-05-25T21:33:12.396Z,16.04
2023-05-25T21:36:00.235Z,16.11
2023-05-25T21:38:48.007Z,15.75
2023-05-25T21:41:35.835Z,16.09
2023-05-25T21:44:23.467Z,15.87
2023-05-25T21:47:11.644Z,15.99
2023-05-25T21:49:59.828Z,16.00
2023-05-25T21:52:47.711Z,15.91
2023-05-25T21:55:35.535Z,16.11
2023-05-25T21:58:25.793Z,15.85
2023-05-25T22:01:13.526Z,16.03
2023-05-25T22:04:01.473Z,16.01
2023-05-25T22:06:49.087Z,15.99
2023-05-25T22:09:37.023Z,15.98
2023-05-25T22:12:24.592Z,15.98
2023-05-25T22:15:12.449Z,15.98
2023-05-25T22:18:00.581Z,16.08
2023-05-25T22:20:48.452Z,16.03
2023-05-25T22:23:36.159Z,15.89
2023-05-25T22:26:24.077Z,15.89
2023-05-25T22:29:12.219Z,16.01
2023-05-25T22:31:59.951Z,15.87
2023-05-25T22:34:47.636Z,15.71
2023-05-25T22:37:35.769Z,15.99
2023-05-25T22:40:26.895Z,15.88
2023-05-25T22:43:15.099Z,15.92
2023-05-25T22:46:02.764Z,15.58
2023-05-25T22:48:50.945Z,15.90
2023-05-25T22:51:38.741Z,15.93
2023-05-25T22:54:26.478Z,15.73
2023-05-25T22:57:14.052Z,15.79
2023-05-25T23:00:01.940Z,15.80
2023-05-25T23:02:49.799Z,15.70
2023-05-25T23:05:37.667Z,15.66
2023-05-25T23:08:25.450Z,15.78
2023-05-25T23:11:13.394Z,15.75
2023-05-25T23:14:02.158Z,15.64
2023-05-25T23:16:50.003Z,15.68
2023-05-25T23:19:38.930Z,15.61
2023-05-25T23:22:26.806Z,15.55
2023-05-25T23:25:14.540Z,15.61
2023-05-25T23:28:02.304Z,15.63
2023-05-25T23:30:49.922Z,15.55
2023-05-25T23:33:37.615Z,15.54
2023-05-25T23:36:28.497Z,15.59
2023-05-25T23:39:16.398Z,15.51
2023-05-25T23:42:04.099Z,15.43
2023-05-25T23:44:51.981Z,15.49
2023-05-25T23:47:39.696Z,15.49
2023-05-25T23:50:27.573Z,15.50
2023-05-25T23:53:15.254Z,15.35
2023-05-25T23:56:03.622Z,15.10
2023-05-25T23:58:53.927Z,15.25
